Fermanagh, Pennsylvania
Current Conditions -  °F | °C
As of 10:53 AM on Thursday 27 Nov 2014 (Local Time) from KSEG Reporting Station
Overcast Overcast  
Wind Chill: 35°   Ceiling: 5500
Heat Index: 35°   Visibility: 10mi
Dew Point: 29°   Wind: 0mph
Humidity: 78%   Direction: NA
Pressure: 30.05"   Gusts: NA
Location:  40.5853°N, 77.3611°W
Report Text: KSEG 271553Z AUTO 00000KT 10SM FEW046 OVC055 02/M02 A3005 RMK AO2 SLP181 T00171017
Loading
Personal Weather Stations






























Interactive Weather Map New forecast layout! Learn more

10-Day Weather Forecast

Advertisements
Track Severe Weather on mobile